N0312CM KORF-KCPK
Flight info
| Callsign | N0312CM |
|---|---|
| Flight time | 0h 15m |
| Altitude | 3500 |
| Route | NFE |
| Aircraft | B58T/L-SDFGRY/C |
Departure
| Time | 2026-04-30 17:41 |
|---|---|
| Airport | Norfolk International Airport (KORF) |
Arrival
| Time | 2026-04-30 17:57 |
|---|---|
| Airport | Chesapeake Regional Airport (KCPK) |
| Time | Latitude | Longitude | Altitude | Speed | Heading |
|---|---|---|---|---|---|
| 2026-04-30 17:39 | 36.90204 | -76.18260 | 1597 ft | 122 kts | 103° |
| 2026-04-30 17:41 | 36.84203 | -76.14643 | 4010 ft | 161 kts | 207° |
| 2026-04-30 17:42 | 36.81815 | -76.15768 | 3532 ft | 199 kts | 194° |
| 2026-04-30 17:42 | 36.77710 | -76.15765 | 3492 ft | 197 kts | 176° |
| 2026-04-30 17:43 | 36.75033 | -76.15247 | 3511 ft | 195 kts | 173° |
| 2026-04-30 17:44 | 36.70956 | -76.14995 | 3501 ft | 195 kts | 199° |
| 2026-04-30 17:44 | 36.67624 | -76.17264 | 3503 ft | 179 kts | 252° |
| 2026-04-30 17:46 | 36.71190 | -76.20563 | 3500 ft | 177 kts | 29° |
| 2026-04-30 17:47 | 36.74490 | -76.16872 | 3504 ft | 182 kts | 76° |
| 2026-04-30 17:48 | 36.70766 | -76.14558 | 3521 ft | 182 kts | 194° |
| 2026-04-30 17:48 | 36.69266 | -76.17908 | 3516 ft | 171 kts | 304° |
| 2026-04-30 17:49 | 36.73567 | -76.17157 | 3519 ft | 174 kts | 24° |
| 2026-04-30 17:50 | 36.73114 | -76.12691 | 3506 ft | 186 kts | 179° |
| 2026-04-30 17:51 | 36.70164 | -76.15345 | 3515 ft | 182 kts | 235° |
| 2026-04-30 17:52 | 36.68208 | -76.19438 | 3518 ft | 184 kts | 255° |
| 2026-04-30 17:53 | 36.67365 | -76.27025 | 2380 ft | 176 kts | 287° |
| 2026-04-30 17:54 | 36.66973 | -76.31701 | 855 ft | 149 kts | 213° |
| 2026-04-30 17:55 | 36.65412 | -76.31096 | 1074 ft | 110 kts | 30° |
| 2026-04-30 17:56 | 36.67374 | -76.31331 | 240 ft | 129 kts | 210° |
| 2026-04-30 17:57 | 36.66071 | -76.32519 | 25 ft | 27 kts | 217° |
| 2026-04-30 17:58 | 36.66149 | -76.32625 | 26 ft | 18 kts | 37° |
| 2026-04-30 17:59 | 36.66414 | -76.32573 | 26 ft | 0 kts | 90° |